Time;durP1;ratioP1;P1;durP2;ratioP2;P2;SDS_P1;SDS_P2;PMS_P1;PMS_P2;Temp;Humidity;BMP_temperature;BMP_pressure;BME280_temperature;BME280_humidity;BME280_pressure;Samples;Min_cycle;Max_cycle;Signal;HPM_P1;HPM_P2
2021/11/10 00:01:22;;;;;;;14.00;8.33;;;0.70;99.90;;;;;;5078910;28;20707;-82
2021/11/10 00:03:48;;;;;;;16.37;7.53;;;0.70;99.90;;;;;;5061214;28;20234;-82
2021/11/10 00:06:14;;;;;;;14.43;9.47;;;0.80;99.90;;;;;;5061929;28;20205;-82
2021/11/10 00:08:40;;;;;;;14.53;8.67;;;;;;;;;;5079149;28;20176;-82
2021/11/10 00:11:06;;;;;;;14.60;8.07;;;;;;;;;;5060530;28;20188;-82
2021/11/10 00:13:32;;;;;;;17.00;8.27;;;;;;;;;;5059390;28;20470;-82
2021/11/10 00:15:57;;;;;;;10.37;7.80;;;0.80;99.90;;;;;;5059789;28;20411;-82
2021/11/10 00:18:23;;;;;;;11.10;7.93;;;0.60;99.90;;;;;;5060348;28;20173;-82
2021/11/10 00:20:49;;;;;;;10.20;6.90;;;;;;;;;;5076686;28;20192;-82
2021/11/10 00:23:16;;;;;;;11.20;6.83;;;;;;;;;;5058129;28;20204;-82
2021/11/10 00:25:42;;;;;;;12.77;7.67;;;;;;;;;;5057708;28;20490;-82
2021/11/10 00:28:08;;;;;;;14.17;8.37;;;;;;;;;;5057111;28;20399;-81
2021/11/10 00:30:34;;;;;;;11.10;6.90;;;0.70;99.90;;;;;;5056892;28;20422;-82
2021/11/10 00:33:00;;;;;;;15.43;8.07;;;;;;;;;;5077260;28;20228;-83
2021/11/10 00:35:26;;;;;;;10.10;6.70;;;;;;;;;;5082537;28;20461;-82
2021/11/10 00:37:52;;;;;;;10.40;7.23;;;;;;;;;;5083520;28;20410;-83
2021/11/10 00:40:18;;;;;;;11.97;7.00;;;;;;;;;;5080738;28;20605;-82
2021/11/10 00:42:44;;;;;;;12.37;7.30;;;;;;;;;;5062294;28;20408;-82
2021/11/10 00:45:10;;;;;;;9.10;6.23;;;;;;;;;;5079749;28;20480;-83
2021/11/10 00:47:36;;;;;;;10.10;7.17;;;;;;;;;;5062123;28;20419;-83
2021/11/10 00:50:04;;;;;;;9.93;6.93;;;0.60;99.90;;;;;;5063265;28;20422;-83
2021/11/10 00:52:30;;;;;;;13.20;7.87;;;;;;;;;;5081983;28;20212;-83
2021/11/10 00:54:56;;;;;;;10.17;6.73;;;;;;;;;;5064991;28;20470;-82
2021/11/10 00:57:22;;;;;;;11.50;7.60;;;;;;;;;;5064635;28;20403;-82
2021/11/10 00:59:48;;;;;;;9.43;6.20;;;;;;;;;;5065197;28;20404;-83
2021/11/10 01:02:14;;;;;;;8.77;6.43;;;;;;;;;;5082573;28;20403;-82
2021/11/10 01:04:40;;;;;;;8.87;6.53;;;;;;;;;;5064515;28;20434;-82
2021/11/10 01:07:06;;;;;;;9.00;6.67;;;;;;;;;;5064861;28;20430;-82
2021/11/10 01:09:39;;;;;;;9.53;6.43;;;0.70;99.90;;;;;;5083307;28;20762;-82
2021/11/10 01:12:07;;;;;;;12.20;6.93;;;1.80;99.90;;;;;;5064983;28;20816;-82
2021/11/10 01:14:32;;;;;;;9.10;5.40;;;0.70;99.90;;;;;;5064803;28;20463;-82
2021/11/10 01:16:58;;;;;;;10.37;7.07;;;1.30;99.90;;;;;;5065503;28;20407;-82
2021/11/10 01:19:24;;;;;;;8.83;6.30;;;1.30;99.90;;;;;;5065047;28;20192;-83
2021/11/10 01:21:50;;;;;;;8.43;5.93;;;0.60;99.90;;;;;;5083910;28;20185;-82
2021/11/10 01:24:16;;;;;;;12.23;5.93;;;;;;;;;;5066145;28;20454;-82
2021/11/10 01:26:42;;;;;;;8.37;6.03;;;;;;;;;;5066967;28;20546;-83
2021/11/10 01:29:08;;;;;;;6.67;4.93;;;;;;;;;;5066933;28;20831;-83
2021/11/10 01:31:34;;;;;;;6.27;4.73;;;0.50;99.90;;;;;;5086208;28;20438;-83
2021/11/10 01:34:03;;;;;;;7.13;5.10;;;;;;;;;;5085535;28;20225;-82
2021/11/10 01:36:29;;;;;;;8.93;5.87;;;0.50;99.90;;;;;;5071334;28;20264;-82
2021/11/10 01:38:55;;;;;;;7.30;5.00;;;0.60;99.90;;;;;;5064711;28;20415;-83
2021/11/10 01:41:21;;;;;;;8.27;5.53;;;;;;;;;;5064386;28;20749;-82
2021/11/10 01:43:49;;;;;;;9.40;5.83;;;;;;;;;;5063810;28;20200;-83
2021/11/10 01:46:15;;;;;;;8.77;5.33;;;;;;;;;;5081788;28;20496;-83
2021/11/10 01:48:41;;;;;;;8.17;5.83;;;;;;;;;;5064463;28;20491;-83
2021/11/10 01:51:08;;;;;;;7.93;5.57;;;0.50;99.90;;;;;;5083228;28;20465;-83
2021/11/10 01:53:34;;;;;;;7.53;5.67;;;;;;;;;;5082319;28;21131;-83
2021/11/10 01:56:01;;;;;;;8.67;6.17;;;0.60;99.90;;;;;;5081735;28;20476;-83
2021/11/10 01:58:28;;;;;;;8.13;6.10;;;;;;;;;;5064743;28;20410;-82
2021/11/10 02:00:54;;;;;;;9.80;5.93;;;;;;;;;;5063298;28;20422;-83
2021/11/10 02:03:20;;;;;;;7.97;6.00;;;;;;;;;;5064399;28;20466;-83
2021/11/10 02:05:46;;;;;;;7.97;6.00;;;;;;;;;;5081783;28;20416;-83
2021/11/10 02:08:12;;;;;;;8.63;5.50;;;0.60;99.90;;;;;;5081620;28;20409;-83
2021/11/10 02:10:38;;;;;;;9.23;5.73;;;1.70;99.90;;;;;;5063816;28;20419;-83
2021/11/10 02:13:05;;;;;;;6.93;5.23;;;;;;;;;;5081206;28;20203;-83
2021/11/10 02:15:32;;;;;;;8.20;5.07;;;;;;;;;;5081679;28;20200;-83
2021/11/10 02:18:01;;;;;;;9.53;6.20;;;0.90;99.90;;;;;;5064525;28;20429;-83
2021/11/10 02:20:32;;;;;;;7.00;5.33;;;0.90;99.90;;;;;;5081355;28;20839;-83
2021/11/10 02:22:58;;;;;;;9.87;5.73;;;;;;;;;;5081689;28;20403;-83
2021/11/10 02:25:27;;;;;;;8.13;6.00;;;;;;;;;;5064059;28;20411;-83
2021/11/10 02:27:53;;;;;;;9.27;6.43;;;;;;;;;;5063203;28;20411;-83
2021/11/10 02:30:20;;;;;;;9.93;6.30;;;1.00;99.90;;;;;;5063151;28;20412;-83
2021/11/10 02:32:50;;;;;;;8.70;5.97;;;1.00;99.90;;;;;;5081201;28;20407;-83
2021/11/10 02:35:24;;;;;;;9.00;5.83;;;1.00;99.90;;;;;;5080968;28;20458;-83
2021/11/10 02:37:59;;;;;;;7.60;5.67;;;2.10;99.90;;;;;;5079656;28;20415;-83
2021/11/10 02:40:26;;;;;;;6.90;5.70;;;1.10;99.90;;;;;;5063913;28;20426;-83
2021/11/10 02:42:53;;;;;;;6.67;5.43;;;1.10;99.90;;;;;;5080569;28;20414;-83
2021/11/10 02:45:19;;;;;;;8.23;5.93;;;1.20;99.90;;;;;;5062263;28;20463;-83
2021/11/10 02:47:46;;;;;;;7.73;6.27;;;;;;;;;;5062841;28;20419;-83
2021/11/10 02:50:12;;;;;;;9.47;5.47;;;;;;;;;;5064208;28;20411;-83
2021/11/10 02:52:38;;;;;;;7.67;5.97;;;;;;;;;;5064324;28;20418;-83
2021/11/10 02:55:05;;;;;;;7.17;5.10;;;1.00;99.90;;;;;;5081228;28;20807;-83
2021/11/10 02:57:31;;;;;;;8.70;5.80;;;;;;;;;;5063602;28;20422;-83
2021/11/10 02:59:57;;;;;;;7.07;4.87;;;;;;;;;;5063619;28;20411;-83
2021/11/10 03:02:26;;;;;;;7.20;5.20;;;1.10;99.90;;;;;;5081870;28;20411;-83
2021/11/10 03:04:52;;;;;;;7.53;5.03;;;;;;;;;;5063651;28;20438;-83
2021/11/10 03:07:18;;;;;;;5.20;4.07;;;;;;;;;;5081341;28;20434;-83
2021/11/10 03:09:44;;;;;;;8.97;6.07;;;1.20;99.90;;;;;;5080715;28;20415;-83
2021/11/10 03:12:12;;;;;;;14.77;8.03;;;1.30;99.90;;;;;;5063305;28;20184;-83
2021/11/10 03:14:40;;;;;;;15.47;7.63;;;1.30;99.90;;;;;;5063329;28;20516;-83
2021/11/10 03:17:08;;;;;;;16.67;9.93;;;1.30;99.90;;;;;;5063259;28;20419;-83
2021/11/10 03:19:35;;;;;;;21.17;11.23;;;;;;;;;;5080980;28;20506;-83
2021/11/10 03:22:02;;;;;;;18.93;9.73;;;1.40;99.90;;;;;;5080948;28;20443;-83
2021/11/10 03:24:28;;;;;;;21.50;9.53;;;;;;;;;;5080788;28;20538;-82
2021/11/10 03:26:53;;;;;;;14.73;8.03;;;1.30;99.90;;;;;;5080755;28;20414;-83
2021/11/10 03:29:20;;;;;;;14.23;7.87;;;;;;;;;;5062328;28;20808;-83
2021/11/10 03:31:45;;;;;;;14.70;9.17;;;1.30;99.90;;;;;;5060296;28;20230;-82
2021/11/10 03:34:12;;;;;;;11.07;7.43;;;1.30;99.90;;;;;;5076072;28;20466;-82
2021/11/10 03:36:38;;;;;;;7.63;5.83;;;;;;;;;;5076205;28;20197;-83
2021/11/10 03:39:07;;;;;;;7.10;5.50;;;1.40;99.90;;;;;;5062781;28;20470;-83
2021/11/10 03:41:33;;;;;;;6.37;4.90;;;;;;;;;;5063397;28;20427;-83
2021/11/10 03:43:58;;;;;;;8.07;6.43;;;1.50;99.90;;;;;;5080802;28;20435;-82
2021/11/10 03:46:25;;;;;;;7.00;6.03;;;;;;;;;;5065171;28;20184;-82
2021/11/10 03:48:51;;;;;;;7.50;5.47;;;;;;;;;;5086114;28;20177;-82
2021/11/10 03:51:17;;;;;;;7.53;5.37;;;1.70;99.90;;;;;;5069160;28;20419;-83
2021/11/10 03:53:44;;;;;;;6.23;4.33;;;1.90;99.90;;;;;;5069764;28;20470;-83
2021/11/10 03:56:09;;;;;;;6.03;4.23;;;1.90;99.90;;;;;;5072170;28;20413;-83
2021/11/10 03:58:36;;;;;;;4.27;3.73;;;2.00;99.90;;;;;;5083214;28;20407;-83
2021/11/10 04:01:02;;;;;;;4.23;3.67;;;2.10;99.90;;;;;;5065119;28;20734;-83
2021/11/10 04:03:28;;;;;;;6.30;3.33;;;2.20;99.90;;;;;;5083416;28;20423;-83
2021/11/10 04:05:54;;;;;;;6.13;3.73;;;;;;;;;;5079181;28;20926;-83
2021/11/10 04:08:20;;;;;;;4.33;3.70;;;;;;;;;;5079104;28;20762;-83
2021/11/10 04:10:46;;;;;;;4.37;3.40;;;;;;;;;;5060813;28;20894;-83
2021/11/10 04:13:12;;;;;;;4.63;3.30;;;;;;;;;;5060674;28;20408;-83
2021/11/10 04:15:38;;;;;;;3.83;3.33;;;2.30;99.90;;;;;;5079350;28;20524;-83
2021/11/10 04:18:05;;;;;;;5.20;4.37;;;2.20;99.90;;;;;;5079189;28;20399;-83
2021/11/10 04:20:32;;;;;;;4.93;3.83;;;;;;;;;;5060444;28;20258;-83
2021/11/10 04:22:58;;;;;;;4.17;3.70;;;;;;;;;;5078946;28;20429;-83
2021/11/10 04:25:24;;;;;;;4.97;4.20;;;;;;;;;;5081570;28;20415;-83
2021/11/10 04:27:50;;;;;;;6.37;4.10;;;;;;;;;;5066677;28;20444;-83
2021/11/10 04:30:17;;;;;;;5.97;4.53;;;1.50;99.90;;;;;;5065728;28;20418;-82
2021/11/10 04:32:44;;;;;;;5.00;3.73;;;;;;;;;;5064620;28;20414;-83
2021/11/10 04:35:11;;;;;;;5.30;3.67;;;1.30;99.90;;;;;;5082272;28;20823;-83
2021/11/10 04:37:37;;;;;;;5.13;3.50;;;;;;;;;;5065889;28;20419;-82
2021/11/10 04:40:05;;;;;;;5.07;3.80;;;1.40;99.90;;;;;;5065336;28;20414;-82
2021/11/10 04:42:31;;;;;;;5.13;3.67;;;1.30;99.90;;;;;;5065901;28;20764;-82
2021/11/10 04:45:07;;;;;;;5.03;3.87;;;1.40;99.90;;;;;;5066042;28;20470;-83
2021/11/10 04:47:33;;;;;;;5.10;3.53;;;1.50;99.90;;;;;;5083168;28;20199;-83
2021/11/10 04:50:00;;;;;;;4.30;3.40;;;;;;;;;;5083318;28;20415;-83
2021/11/10 04:52:26;;;;;;;8.27;3.83;;;;;;;;;;5065428;28;20434;-83
2021/11/10 04:54:53;;;;;;;4.13;3.17;;;;;;;;;;5083762;28;20454;-83
2021/11/10 04:57:19;;;;;;;5.63;3.50;;;;;;;;;;5066129;28;20446;-83
2021/11/10 04:59:45;;;;;;;5.60;3.23;;;;;;;;;;5065909;28;20414;-83
2021/11/10 05:04:39;;;;;;;3.97;3.13;;;2.10;99.90;;;;;;5083375;28;20951;-83
2021/11/10 05:07:05;;;;;;;6.07;3.80;;;2.20;99.90;;;;;;5065511;28;20422;-83
2021/11/10 05:09:32;;;;;;;4.70;3.37;;;;;;;;;;5065004;28;20913;-83
2021/11/10 05:11:58;;;;;;;3.40;3.10;;;;;;;;;;5065358;28;20430;-83
2021/11/10 05:14:25;;;;;;;4.40;3.30;;;2.00;99.90;;;;;;5065067;28;20478;-83
2021/11/10 05:16:51;;;;;;;3.47;3.17;;;2.00;99.90;;;;;;5082772;28;20414;-83
2021/11/10 05:19:17;;;;;;;5.30;3.53;;;2.00;99.90;;;;;;5065526;28;20415;-82
2021/11/10 05:21:43;;;;;;;4.87;3.80;;;;;;;;;;5065028;28;20435;-83
2021/11/10 05:24:09;;;;;;;5.50;4.30;;;1.60;99.90;;;;;;5065100;28;20439;-84
2021/11/10 05:26:36;;;;;;;11.10;6.93;;;;;;;;;;5083590;28;20862;-83
2021/11/10 05:29:02;;;;;;;14.60;8.80;;;;;;;;;;5066531;28;20189;-83
2021/11/10 05:31:28;;;;;;;18.80;10.87;;;1.40;99.90;;;;;;5066467;28;20813;-83
2021/11/10 05:33:54;;;;;;;7.37;5.57;;;1.30;99.90;;;;;;5068929;28;20458;-82
2021/11/10 05:36:20;;;;;;;5.47;4.30;;;;;;;;;;5073355;28;20183;-82
2021/11/10 05:38:46;;;;;;;6.50;4.27;;;1.30;99.90;;;;;;5097687;28;20464;-82
2021/11/10 05:41:11;;;;;;;6.17;4.83;;;1.40;99.90;;;;;;5079716;28;20422;-82
2021/11/10 05:43:37;;;;;;;30.47;17.93;;;1.40;99.90;;;;;;5093299;28;20244;-82
2021/11/10 05:46:04;;;;;;;15.83;9.23;;;;;;;;;;5069499;28;20181;-83
2021/11/10 05:48:30;;;;;;;6.20;5.07;;;;;;;;;;5088734;28;20627;-82
2021/11/10 05:50:57;;;;;;;6.27;4.40;;;;;;;;;;5086109;28;20402;-82
2021/11/10 05:53:23;;;;;;;5.60;4.37;;;;;;;;;;5063941;28;20434;-83
2021/11/10 05:55:52;;;;;;;5.43;4.57;;;1.40;99.90;;;;;;5062985;28;20408;-83
2021/11/10 05:58:19;;;;;;;6.83;4.33;;;;;;;;;;5062727;28;20422;-82
2021/11/10 06:00:45;;;;;;;6.53;4.33;;;1.20;99.90;;;;;;5062990;28;20410;-81
2021/11/10 06:03:11;;;;;;;5.27;4.07;;;1.20;99.90;;;;;;5081242;28;20411;-81
2021/11/10 06:05:37;;;;;;;6.83;4.30;;;1.40;99.90;;;;;;5063504;28;20893;-82
2021/11/10 06:08:03;;;;;;;5.00;3.60;;;1.20;99.90;;;;;;5062741;28;20183;-82
2021/11/10 06:10:29;;;;;;;7.07;4.17;;;;;;;;;;5061661;28;20181;-82
2021/11/10 06:12:55;;;;;;;4.50;3.50;;;;;;;;;;5063196;28;20446;-82
2021/11/10 06:15:22;;;;;;;6.60;3.87;;;;;;;;;;5062862;28;20489;-82
2021/11/10 06:17:48;;;;;;;6.67;4.50;;;1.10;99.90;;;;;;5081167;28;20881;-82
2021/11/10 06:20:15;;;;;;;5.33;4.20;;;1.70;99.90;;;;;;5081534;28;20422;-82
2021/11/10 06:22:41;;;;;;;8.83;4.13;;;;;;;;;;5065262;28;20431;-83
2021/11/10 06:25:08;;;;;;;8.60;4.97;;;1.00;99.90;;;;;;5066105;28;20435;-83
2021/11/10 06:27:34;;;;;;;6.17;4.20;;;;;;;;;;5068119;28;20444;-82
2021/11/10 06:30:00;;;;;;;7.30;5.10;;;1.00;99.90;;;;;;5064154;28;20434;-82
2021/11/10 06:32:26;;;;;;;10.83;5.63;;;;;;;;;;5059735;28;20430;-81
2021/11/10 06:34:52;;;;;;;7.83;5.30;;;1.10;99.90;;;;;;5076321;28;20459;-81
2021/11/10 06:37:18;;;;;;;8.63;5.77;;;1.10;99.90;;;;;;5059241;28;20798;-82
2021/11/10 06:39:44;;;;;;;10.50;5.57;;;;;;;;;;5062470;28;20383;-83
2021/11/10 06:42:10;;;;;;;8.83;5.43;;;;;;;;;;5062387;28;20177;-82
2021/11/10 06:44:36;;;;;;;7.50;5.23;;;;;;;;;;5062401;28;20435;-83
2021/11/10 06:47:03;;;;;;;14.40;9.10;;;1.30;99.90;;;;;;5080172;28;20479;-82
2021/11/10 06:49:29;;;;;;;27.30;16.60;;;;;;;;;;5081017;28;20407;-82
2021/11/10 06:51:55;;;;;;;104.07;54.53;;;;;;;;;;5062931;28;20429;-82
2021/11/10 06:54:22;;;;;;;91.40;48.57;;;;;;;;;;5064399;28;20470;-82
2021/11/10 06:56:49;;;;;;;96.17;49.50;;;;;;;;;;5064106;28;20415;-82
2021/11/10 06:59:15;;;;;;;93.47;50.13;;;;;;;;;;5065144;28;20420;-82
2021/11/10 07:01:41;;;;;;;99.63;46.50;;;;;;;;;;5084344;28;20395;-82
2021/11/10 07:04:07;;;;;;;83.00;44.23;;;;;;;;;;5083304;28;20509;-82
2021/11/10 07:06:33;;;;;;;51.27;28.50;;;1.60;99.90;;;;;;5083298;28;20411;-82
2021/11/10 07:08:59;;;;;;;40.13;21.60;;;;;;;;;;5062024;28;20185;-83
2021/11/10 07:11:25;;;;;;;28.60;14.30;;;1.80;99.90;;;;;;5061091;28;20279;-83
2021/11/10 07:13:51;;;;;;;27.50;14.47;;;;;;;;;;5079497;28;20268;-82
2021/11/10 07:16:17;;;;;;;14.73;8.40;;;2.00;99.90;;;;;;5061369;28;20184;-82
2021/11/10 07:18:43;;;;;;;13.63;6.83;;;;;;;;;;5061353;28;20417;-82
2021/11/10 07:21:10;;;;;;;9.73;5.63;;;;;;;;;;5061706;28;20453;-83
2021/11/10 07:23:38;;;;;;;13.30;6.67;;;2.10;99.90;;;;;;5061593;28;20423;-82
2021/11/10 07:26:05;;;;;;;12.27;7.27;;;;;;;;;;5079004;28;20435;-83
2021/11/10 07:28:32;;;;;;;18.27;6.87;;;2.20;99.90;;;;;;5061598;28;20411;-82
2021/11/10 07:30:57;;;;;;;14.33;8.57;;;2.60;99.90;;;;;;5060907;28;20250;-82
2021/11/10 07:33:23;;;;;;;17.87;9.33;;;2.40;99.90;;;;;;5079872;28;20419;-82
2021/11/10 07:35:49;;;;;;;19.90;8.27;;;2.50;99.90;;;;;;5064202;28;20177;-82
2021/11/10 07:38:15;;;;;;;59.10;30.83;;;2.60;99.90;;;;;;5093680;28;20223;-82
2021/11/10 07:40:41;;;;;;;73.97;38.83;;;;;;;;;;5076232;28;20177;-82
2021/11/10 07:43:07;;;;;;;51.00;27.97;;;2.80;99.90;;;;;;5090834;28;20395;-82
2021/11/10 07:48:02;;;;;;;24.07;13.13;;;2.90;99.90;;;;;;5079229;28;20173;-82
2021/11/10 07:50:28;;;;;;;25.07;13.93;;;3.00;99.90;;;;;;5060352;28;20184;-82
2021/11/10 07:52:54;;;;;;;24.43;13.33;;;3.20;99.90;;;;;;5078623;28;20403;-83
2021/11/10 07:55:20;;;;;;;19.17;11.57;;;3.30;99.90;;;;;;5060568;28;20458;-83
2021/11/10 07:57:46;;;;;;;21.90;9.73;;;3.40;99.90;;;;;;5060699;28;20183;-83
2021/11/10 08:00:17;;;;;;;13.83;7.80;;;3.60;99.90;;;;;;5077948;28;20169;-83
2021/11/10 08:02:43;;;;;;;16.43;7.13;;;3.70;99.90;;;;;;5060330;28;20218;-82
2021/11/10 08:05:11;;;;;;;11.83;7.10;;;3.90;99.90;;;;;;5060035;28;20525;-82
2021/11/10 08:07:37;;;;;;;12.60;5.37;;;4.00;99.90;;;;;;5060464;28;20515;-82
2021/11/10 08:10:04;;;;;;;7.33;3.90;;;4.50;99.90;;;;;;5078394;28;20419;-82
2021/11/10 08:12:31;;;;;;;7.07;4.07;;;4.30;99.90;;;;;;5079093;28;20420;-82
2021/11/10 08:14:58;;;;;;;5.13;3.63;;;4.40;99.90;;;;;;5079136;28;20458;-82
2021/11/10 08:17:24;;;;;;;5.07;3.40;;;4.60;99.90;;;;;;5061597;28;20411;-82
2021/11/10 08:19:50;;;;;;;5.90;3.50;;;4.70;99.90;;;;;;5061282;28;20404;-82
2021/11/10 08:22:16;;;;;;;4.47;3.00;;;4.80;99.90;;;;;;5078582;28;20430;-82
2021/11/10 08:24:42;;;;;;;3.60;2.80;;;4.90;99.90;;;;;;5078827;28;20211;-83
2021/11/10 08:27:08;;;;;;;5.10;3.23;;;5.20;99.90;;;;;;5079623;28;20189;-82
2021/11/10 08:29:33;;;;;;;6.33;3.87;;;5.30;99.90;;;;;;5061594;28;20932;-82
2021/11/10 08:31:59;;;;;;;8.53;3.93;;;5.40;99.90;;;;;;5062856;28;20181;-82
2021/11/10 08:34:25;;;;;;;6.37;3.57;;;5.60;99.90;;;;;;5080204;28;20250;-82
2021/11/10 08:36:50;;;;;;;6.10;3.07;;;5.70;99.90;;;;;;5063675;28;20187;-82
2021/11/10 08:39:16;;;;;;;6.53;3.37;;;5.80;99.90;;;;;;5064005;28;20203;-82
2021/11/10 08:41:47;;;;;;;6.00;3.50;;;5.80;99.90;;;;;;5064565;28;20185;-82
2021/11/10 08:44:13;;;;;;;5.93;3.20;;;5.80;99.90;;;;;;5065442;28;20197;-82
2021/11/10 08:46:39;;;;;;;4.07;2.93;;;6.10;99.90;;;;;;5073872;28;20181;-82
2021/11/10 08:49:04;;;;;;;7.57;4.80;;;6.10;99.90;;;;;;5075780;28;20205;-82
2021/11/10 08:51:30;;;;;;;5.40;3.80;;;6.10;99.90;;;;;;5076284;28;20181;-82
2021/11/10 08:53:56;;;;;;;4.87;3.27;;;6.20;99.90;;;;;;5093440;28;20316;-82
2021/11/10 08:56:22;;;;;;;5.50;3.87;;;6.20;99.90;;;;;;5073173;28;20195;-82
2021/11/10 08:58:47;;;;;;;6.13;4.13;;;6.20;99.90;;;;;;5059523;28;20679;-82
2021/11/10 09:01:16;;;;;;;5.53;4.40;;;6.20;99.90;;;;;;5060229;28;20181;-82
2021/11/10 09:03:42;;;;;;;10.47;4.07;;;6.30;99.90;;;;;;5077787;28;20185;-82
2021/11/10 09:06:09;;;;;;;5.33;3.97;;;6.40;99.90;;;;;;5078459;28;20414;-82
2021/11/10 09:08:35;;;;;;;12.03;5.63;;;6.50;99.90;;;;;;5060197;28;20181;-82
2021/11/10 09:11:00;;;;;;;15.83;7.93;;;6.60;99.90;;;;;;5063029;28;20534;-82
2021/11/10 09:13:27;;;;;;;12.07;6.43;;;6.70;99.90;;;;;;5081570;28;20642;-82
2021/11/10 09:15:53;;;;;;;10.07;5.13;;;6.80;99.90;;;;;;5081836;28;20253;-82
2021/11/10 09:18:19;;;;;;;14.67;5.57;;;6.80;99.90;;;;;;5081480;28;20196;-82
2021/11/10 09:20:45;;;;;;;13.77;4.90;;;6.90;99.90;;;;;;5062598;28;20619;-82
2021/11/10 09:23:13;;;;;;;8.57;5.30;;;6.90;99.90;;;;;;5061593;28;20182;-82
2021/11/10 09:25:39;;;;;;;7.20;4.30;;;7.00;99.90;;;;;;5061099;28;20185;-82
2021/11/10 09:28:07;;;;;;;7.77;3.33;;;7.20;99.90;;;;;;5079519;28;20181;-82
2021/11/10 09:30:37;;;;;;;5.83;3.53;;;7.30;99.90;;;;;;5061239;28;20185;-82
2021/11/10 09:33:03;;;;;;;7.57;3.67;;;7.40;99.90;;;;;;5060521;28;20187;-81
2021/11/10 09:35:29;;;;;;;7.70;4.17;;;7.50;99.90;;;;;;5059097;28;20220;-81
2021/11/10 09:37:56;;;;;;;7.63;3.67;;;7.60;99.90;;;;;;5078044;28;20173;-81
2021/11/10 09:40:25;;;;;;;7.63;3.90;;;7.80;99.90;;;;;;5093633;28;20189;-81
2021/11/10 09:42:51;;;;;;;5.87;2.97;;;7.90;99.90;;;;;;5075055;28;20189;-82
2021/11/10 09:45:20;;;;;;;9.53;3.60;;;7.90;99.90;;;;;;5066261;28;20604;-82
2021/11/10 09:47:47;;;;;;;4.37;3.30;;;8.00;99.90;;;;;;5080513;28;20221;-82
2021/11/10 09:50:16;;;;;;;5.57;3.80;;;8.00;99.90;;;;;;5061968;28;20186;-82
2021/11/10 09:52:42;;;;;;;4.00;3.40;;;8.10;99.90;;;;;;5078857;28;20276;-82
2021/11/10 09:55:10;;;;;;;4.70;3.53;;;8.20;99.90;;;;;;5061737;28;20217;-82
2021/11/10 09:57:36;;;;;;;7.40;3.27;;;8.30;99.90;;;;;;5079611;28;20703;-82
2021/11/10 10:00:10;;;;;;;5.60;3.27;;;8.30;99.90;;;;;;5079732;28;20202;-82
2021/11/10 10:02:36;;;;;;;6.13;3.30;;;8.40;99.90;;;;;;5062293;28;20569;-81
2021/11/10 10:05:03;;;;;;;7.80;3.10;;;8.50;99.90;;;;;;5061365;28;20211;-82
2021/11/10 10:07:29;;;;;;;10.03;3.37;;;8.70;99.90;;;;;;5079663;28;20174;-82
2021/11/10 10:09:55;;;;;;;10.30;3.80;;;8.70;99.90;;;;;;5061510;28;20193;-82
2021/11/10 10:12:21;;;;;;;8.90;3.50;;;8.90;99.90;;;;;;5062184;28;20206;-82
2021/11/10 10:14:47;;;;;;;6.87;3.60;;;8.90;99.90;;;;;;5061091;28;20648;-82
2021/11/10 10:17:31;;;;;;;8.60;4.30;;;9.00;99.90;;;;;;5079563;28;20201;-82
2021/11/10 10:19:57;;;;;;;9.10;4.80;;;9.10;99.90;;;;;;5079632;28;20178;-82
2021/11/10 10:22:22;;;;;;;12.97;4.37;;;9.00;99.90;;;;;;5078802;28;20196;-82
2021/11/10 10:24:54;;;;;;;10.50;5.37;;;8.80;99.90;;;;;;5079423;28;20198;-82
2021/11/10 10:27:34;;;;;;;7.47;4.23;;;8.80;99.90;;;;;;5060745;28;20184;-82
2021/11/10 10:30:33;;;;;;;12.07;4.30;;;8.70;99.90;;;;;;5079280;28;20176;-82
2021/11/10 10:33:20;;;;;;;10.07;4.13;;;8.60;99.90;;;;;;5079574;28;20173;-82
2021/11/10 10:35:47;;;;;;;7.37;3.60;;;8.50;99.90;;;;;;5079327;28;20228;-82
2021/11/10 10:38:18;;;;;;;6.80;4.00;;;8.30;99.90;;;;;;5061216;28;20223;-82
2021/11/10 10:40:47;;;;;;;7.80;4.33;;;8.20;99.90;;;;;;5060299;28;20181;-82
2021/11/10 10:43:14;;;;;;;8.47;4.87;;;8.10;99.90;;;;;;5060449;28;20185;-81
2021/11/10 10:45:46;;;;;;;8.43;4.10;;;8.00;99.90;;;;;;5078280;28;20239;-82
2021/11/10 10:48:19;;;;;;;6.83;4.43;;;7.90;99.90;;;;;;5060584;28;20183;-82
2021/11/10 10:50:53;;;;;;;6.67;4.70;;;7.90;99.90;;;;;;5061643;28;20550;-81
2021/11/10 10:53:34;;;;;;;7.83;4.40;;;7.80;99.90;;;;;;5061246;28;20183;-81
2021/11/10 10:56:12;;;;;;;7.10;3.30;;;7.80;99.90;;;;;;5060705;28;20182;-81
2021/11/10 10:58:38;;;;;;;7.97;4.30;;;7.90;99.90;;;;;;5078700;28;20170;-81
2021/11/10 11:01:27;;;;;;;10.77;4.40;;;7.90;99.90;;;;;;5062417;28;20169;-81
2021/11/10 11:04:19;;;;;;;18.23;5.93;;;8.00;99.90;;;;;;5061730;28;20200;-80
2021/11/10 11:07:06;;;;;;;6.60;5.47;;;8.10;99.90;;;;;;5080696;28;20194;-81
2021/11/10 11:09:47;;;;;;;7.43;4.47;;;8.20;99.90;;;;;;5064466;28;20185;-81
2021/11/10 11:12:26;;;;;;;7.37;5.03;;;8.20;99.90;;;;;;5084446;28;20179;-80
2021/11/10 11:15:25;;;;;;;9.80;4.93;;;8.30;99.90;;;;;;5063635;28;20208;-81
2021/11/10 11:17:55;;;;;;;11.77;4.07;;;8.40;99.90;;;;;;5063412;28;20188;-81
2021/11/10 11:20:30;;;;;;;7.83;4.73;;;8.50;99.90;;;;;;5080873;28;20181;-81
2021/11/10 11:22:57;;;;;;;7.60;4.40;;;8.60;99.90;;;;;;5062619;28;20196;-82
2021/11/10 11:25:27;;;;;;;5.37;4.20;;;8.60;99.90;;;;;;5084816;28;20192;-81
2021/11/10 11:27:57;;;;;;;8.07;4.00;;;8.60;99.90;;;;;;5062418;28;20184;-82
2021/11/10 11:30:25;;;;;;;6.50;4.17;;;8.70;99.90;;;;;;5062495;28;20185;-81
2021/11/10 11:32:57;;;;;;;9.83;4.17;;;8.80;99.90;;;;;;5080211;28;20180;-82
2021/11/10 11:35:27;;;;;;;10.60;4.00;;;8.80;99.90;;;;;;5062247;28;20287;-82
2021/11/10 11:38:10;;;;;;;7.13;3.60;;;8.70;99.90;;;;;;5062462;28;20232;-81
2021/11/10 11:40:43;;;;;;;6.30;3.13;;;8.70;99.90;;;;;;5062649;28;20199;-82
2021/11/10 11:43:14;;;;;;;6.17;3.70;;;8.70;99.90;;;;;;5087364;28;20187;-81
2021/11/10 11:45:42;;;;;;;9.03;3.93;;;8.70;99.90;;;;;;5077659;28;20180;-82
2021/11/10 11:48:08;;;;;;;8.83;3.83;;;8.80;99.90;;;;;;5094406;28;20178;-82
2021/11/10 11:50:38;;;;;;;5.53;3.77;;;8.80;99.90;;;;;;5090739;28;20185;-82
2021/11/10 11:53:05;;;;;;;4.23;3.30;;;8.90;99.90;;;;;;5083953;28;20173;-81
2021/11/10 11:55:47;;;;;;;9.10;4.37;;;9.00;99.90;;;;;;5062338;28;20212;-82
2021/11/10 11:58:21;;;;;;;10.47;3.93;;;9.20;99.90;;;;;;5040910;28;20175;-81
2021/11/10 12:00:51;;;;;;;6.57;4.07;;;9.30;99.90;;;;;;5040171;28;20170;-82
2021/11/10 12:03:24;;;;;;;5.33;3.50;;;9.30;99.90;;;;;;5041052;28;20178;-81
2021/11/10 12:06:02;;;;;;;7.87;3.80;;;9.30;99.90;;;;;;5040042;28;20639;-81
2021/11/10 12:08:53;;;;;;;5.03;3.67;;;9.50;99.90;;;;;;5040026;28;20186;-81
2021/11/10 12:11:40;;;;;;;9.07;4.50;;;9.40;99.90;;;;;;5039428;28;20264;-81
2021/11/10 12:14:21;;;;;;;6.33;3.87;;;9.40;99.90;;;;;;5039915;28;20209;-81
2021/11/10 12:16:59;;;;;;;10.23;4.13;;;9.50;99.90;;;;;;5040761;28;20254;-81
2021/11/10 12:19:38;;;;;;;12.10;4.30;;;9.70;99.90;;;;;;5039967;28;20257;-81
2021/11/10 12:22:13;;;;;;;5.40;3.90;;;9.90;99.90;;;;;;5059269;28;20182;-81
2021/11/10 12:24:47;;;;;;;8.23;5.97;;;10.00;99.90;;;;;;5039737;28;20264;-81
2021/11/10 12:27:16;;;;;;;5.17;3.70;;;10.20;99.90;;;;;;5057945;28;20693;-81
2021/11/10 12:29:49;;;;;;;5.90;4.60;;;10.60;99.90;;;;;;5056929;28;20174;-81
2021/11/10 12:32:18;;;;;;;7.23;3.87;;;10.70;99.90;;;;;;5041281;28;20173;-81
2021/11/10 12:34:49;;;;;;;6.87;4.13;;;10.80;99.90;;;;;;5054255;28;20631;-81
2021/11/10 12:37:24;;;;;;;9.13;4.10;;;10.90;99.90;;;;;;5036222;28;20180;-81
2021/11/10 12:40:07;;;;;;;4.87;3.77;;;10.90;99.90;;;;;;5038603;28;20193;-82
2021/11/10 12:43:01;;;;;;;7.63;3.70;;;11.00;99.90;;;;;;5058456;28;20170;-81
2021/11/10 12:45:29;;;;;;;8.03;3.80;;;11.20;99.90;;;;;;5060304;28;20208;-82
2021/11/10 12:47:58;;;;;;;10.57;4.40;;;11.30;99.90;;;;;;5063383;28;20613;-82
2021/11/10 12:50:39;;;;;;;13.07;4.80;;;11.30;99.90;;;;;;5062699;28;20231;-81
2021/11/10 12:53:11;;;;;;;11.67;4.90;;;11.50;99.90;;;;;;5046440;28;20188;-81
2021/11/10 12:55:55;;;;;;;16.33;6.10;;;11.50;99.90;;;;;;5065323;28;20725;-81
2021/11/10 12:58:23;;;;;;;11.33;5.63;;;11.60;99.90;;;;;;5044609;28;20169;-82
2021/11/10 13:00:54;;;;;;;11.70;5.17;;;11.50;99.90;;;;;;5063209;28;20166;-82
2021/11/10 13:03:30;;;;;;;10.40;5.07;;;11.50;99.90;;;;;;5044650;28;20165;-81
2021/11/10 13:06:18;;;;;;;5.70;4.07;;;11.50;99.90;;;;;;5044849;28;20200;-82
2021/11/10 13:09:06;;;;;;;7.93;4.27;;;11.40;99.90;;;;;;5045093;28;20227;-82
2021/11/10 13:11:40;;;;;;;9.67;4.43;;;11.20;99.90;;;;;;5045147;28;20184;-82
2021/11/10 13:14:10;;;;;;;6.87;3.70;;;11.00;99.90;;;;;;5044044;28;20211;-81
2021/11/10 13:17:02;;;;;;;9.77;3.87;;;11.00;99.90;;;;;;5060656;28;20214;-81
2021/11/10 13:19:48;;;;;;;10.20;4.43;;;10.90;99.90;;;;;;5042968;28;20177;-82
2021/11/10 13:22:18;;;;;;;7.10;4.37;;;10.70;99.90;;;;;;5065530;28;20185;-83
2021/11/10 13:24:45;;;;;;;10.33;4.17;;;10.70;99.90;;;;;;5064235;28;20189;-82
2021/11/10 13:27:11;;;;;;;5.80;3.50;;;10.60;99.90;;;;;;5046944;28;20203;-82
2021/11/10 13:29:45;;;;;;;9.40;3.90;;;10.40;99.90;;;;;;5063844;28;20239;-82
2021/11/10 13:32:12;;;;;;;7.37;3.90;;;10.40;99.90;;;;;;5046184;28;20272;-82
2021/11/10 13:34:43;;;;;;;6.60;4.00;;;10.30;99.90;;;;;;5063809;28;20542;-82